TAF Flughafenprognosen

Nürnberg TAF, ausgegeben Mi 26.06. 13:00

TAF EDDN 261100Z 2612/2712 VRB03KT CAVOK TEMPO 2612/2618 29005KT BECMG 2704/2706 02006KT
GültigkeitVonBisWind in Beaufort
(Knoten)
Wolken
(Meter über Grund)
Sichtweite
(Meter)
Wettererscheinung
Grundvorhersage Mi 26.06. 14:00 Do 27.06. 14:00 Uml 2 (3) Nicht signifikant >= 10000  
Vorübergehend Mi 26.06. 14:00 Mi 26.06. 20:00 WNW 2 (5)      
Übergang zu Do 27.06. 06:00 Do 27.06. 08:00 NNO 2 (6)      

 

Hof TAF, ausgegeben Mi 26.06. 13:00

TAF EDQM 261100Z 2612/2621 26007KT CAVOK BECMG 2615/2617 32005KT
GültigkeitVonBisWind in Beaufort
(Knoten)
Wolken
(Meter über Grund)
Sichtweite
(Meter)
Wettererscheinung
Grundvorhersage Mi 26.06. 14:00 Mi 26.06. 23:00 W 3 (7) Nicht signifikant >= 10000  
Übergang zu Mi 26.06. 17:00 Mi 26.06. 19:00 NW 2 (5)      

 

Erfurt-Bindersleben TAF, ausgegeben Mi 26.06. 13:00

TAF EDDE 261100Z 2612/2712 29011KT CAVOK BECMG 2618/2620 33006KT
GültigkeitVonBisWind in Beaufort
(Knoten)
Wolken
(Meter über Grund)
Sichtweite
(Meter)
Wettererscheinung
Grundvorhersage Mi 26.06. 14:00 Do 27.06. 14:00 WNW 4 (11) Nicht signifikant >= 10000  
Übergang zu Mi 26.06. 20:00 Mi 26.06. 22:00 NNW 2 (6)      

 

Augsburg TAF, ausgegeben Mi 26.06. 13:00

TAF EDMA 261100Z 2612/2621 VRB03KT CAVOK
GültigkeitVonBisWind in Beaufort
(Knoten)
Wolken
(Meter über Grund)
Sichtweite
(Meter)
Wettererscheinung
Grundvorhersage Mi 26.06. 14:00 Mi 26.06. 23:00 Uml 2 (3)      

 

Frankfurt TAF, ausgegeben Mi 26.06. 13:00

TAF EDDF 261100Z 2612/2718 32005KT CAVOK TEMPO 2613/2617 34010KT BECMG 2618/2621 02008KT
GültigkeitVonBisWind in Beaufort
(Knoten)
Wolken
(Meter über Grund)
Sichtweite
(Meter)
Wettererscheinung
Grundvorhersage Mi 26.06. 14:00 Do 27.06. 20:00 NW 2 (5) Nicht signifikant >= 10000  
Vorübergehend Mi 26.06. 15:00 Mi 26.06. 19:00 NNW 3 (10)      
Übergang zu Mi 26.06. 20:00 Mi 26.06. 23:00 NNO 3 (8)      

 

Stuttgart TAF, ausgegeben Mi 26.06. 13:00

TAF EDDS 261100Z 2612/2712 VRB03KT CAVOK TEMPO 2612/2619 01005KT BECMG 2708/2710 35006KT
GültigkeitVonBisWind in Beaufort
(Knoten)
Wolken
(Meter über Grund)
Sichtweite
(Meter)
Wettererscheinung
Grundvorhersage Mi 26.06. 14:00 Do 27.06. 14:00 Uml 2 (3) Nicht signifikant >= 10000  
Vorübergehend Mi 26.06. 14:00 Mi 26.06. 21:00 N 2 (5)      
Übergang zu Do 27.06. 10:00 Do 27.06. 12:00 N 2 (6)      

 

München TAF, ausgegeben Mi 26.06. 13:00

TAF EDDM 261100Z 2612/2718 VRB03KT CAVOK BECMG 2708/2710 33008KT
GültigkeitVonBisWind in Beaufort
(Knoten)
Wolken
(Meter über Grund)
Sichtweite
(Meter)
Wettererscheinung
Grundvorhersage Mi 26.06. 14:00 Do 27.06. 20:00 Uml 2 (3) Nicht signifikant >= 10000  
Übergang zu Do 27.06. 10:00 Do 27.06. 12:00 NNW 3 (8)